| time (UTC) | temp F | wind direction | speed knots | gust knots | rain 1hr in | rain 24hr in | rain mn in | humidity % | barometer mb |
| 20260906181504 | 94 | 23 | 9.6 | 20.0 | 0.00 | 0.00 | 0.00 | 46 | 1015.7 |
| 20260906180004 | 100 | 96 | 0.9 | 4.3 | 0.00 | 0.00 | 0.00 | 1015.6 | |
| 20260906174504 | 99 | 77 | 1.7 | 6.1 | 0.00 | 0.00 | 0.00 | 36 | 1015.9 |
| 20260906173004 | 101 | 72 | 1.7 | 4.3 | 0.00 | 0.00 | 0.00 | 35 | 1016.2 |
| 20260906171505 | 99 | 12 | 2.6 | 6.1 | 0.00 | 0.00 | 0.00 | 36 | 1016.5 |
| 20260906170004 | 99 | 15 | 0.9 | 4.3 | 0.00 | 0.00 | 0.00 | 39 | 1016.7 |
| 20260906164506 | 99 | 355 | 1.7 | 3.5 | 0.00 | 0.00 | 0.00 | 1017.0 | |
| 20260906163005 | 99 | 204 | 1.7 | 2.6 | 0.00 | 0.00 | 0.00 | 38 | 1017.0 |
| 20260906161505 | 98 | 360 | 2.6 | 4.3 | 0.00 | 0.00 | 0.00 | 40 | 1017.2 |
| 20260906160012 | 97 | 225 | 1.7 | 3.5 | 0.00 | 0.00 | 0.00 | 43 | 1017.2 |
| 20260906154508 | 95 | 217 | 0.0 | 2.6 | 0.00 | 0.00 | 0.00 | 46 | 1017.1 |
| 20260906153007 | 93 | 275 | 1.7 | 4.3 | 0.00 | 0.00 | 0.00 | 46 | 1017.1 |
| 20260906151506 | 92 | 255 | 1.7 | 4.3 | 0.00 | 0.00 | 0.00 | 48 | 1017.0 |
| 20260906150006 | 92 | 316 | 1.7 | 3.5 | 0.00 | 0.00 | 0.00 | 49 | 1017.0 |
| 20260906144507 | 89 | 188 | 1.7 | 4.3 | 0.00 | 0.00 | 0.00 | 54 | 1017.1 |
| 20260906143009 | 88 | 231 | 0.9 | 3.5 | 0.00 | 0.00 | 0.00 | 55 | 1017.1 |
| 20260906141512 | 87 | 170 | 2.6 | 3.5 | 0.00 | 0.00 | 0.00 | 58 | 1017.2 |
| 20260906140012 | 85 | 40 | 0.0 | 1.7 | 0.00 | 0.00 | 0.00 | 63 | 1017.0 |
| 20260906134508 | 82 | 54 | 0.0 | 1.7 | 0.00 | 0.00 | 0.00 | 67 | 1016.9 |
| 20260906133010 | 80 | 110 | 0.9 | 1.7 | 0.00 | 0.00 | 0.00 | 69 | 1016.8 |
| 20260906131508 | 78 | 51 | 0.0 | 2.6 | 0.00 | 0.00 | 0.00 | 72 | 1016.7 |
| 20260906130011 | 76 | 120 | 0.0 | 1.7 | 0.00 | 0.00 | 0.00 | 75 | 1016.6 |
| 20260906124512 | 74 | 46 | 0.0 | 2.6 | 0.00 | 0.00 | 0.00 | 78 | 1016.4 |
| 20260906123011 | 73 | 168 | 0.0 | 2.6 | 0.00 | 0.00 | 0.00 | 80 | 1016.3 |
| 20260906121516 | 73 | 115 | 0.9 | 1.7 | 0.00 | 0.00 | 0.00 | 81 | 1016.3 |
| 20260906120016 | 72 | 101 | 0.0 | 1.7 | 0.00 | 0.00 | 0.00 | 81 | 1016.2 |
| 20260906114534 | 73 | 78 | 0.0 | 1.7 | 0.00 | 0.00 | 0.00 | 80 | 1016.0 |
| 20260906113021 | 73 | 139 | 0.9 | 1.7 | 0.00 | 0.00 | 0.00 | 80 | 1016.0 |
| 20260906111516 | 73 | 201 | 0.0 | 1.7 | 0.00 | 0.00 | 0.00 | 80 | 1015.9 |
| 20260906110020 | 73 | 129 | 1.7 | 3.5 | 0.00 | 0.00 | 0.00 | 80 | 1015.9 |
| 20260906104522 | 73 | 114 | 0.0 | 1.7 | 0.00 | 0.00 | 0.00 | 79 | 1015.8 |
| 20260906103020 | 73 | 106 | 0.9 | 1.7 | 0.00 | 0.00 | 0.00 | 80 | 1015.6 |
| 20260906101509 | 73 | 123 | 0.0 | 2.6 | 0.00 | 0.00 | 0.00 | 80 | 1015.6 |
| 20260906100009 | 73 | 114 | 0.9 | 1.7 | 0.00 | 0.00 | 0.00 | 80 | 1015.5 |
| 20260906094513 | 73 | 110 | 0.9 | 2.6 | 0.00 | 0.00 | 0.00 | 80 | 1015.6 |
| 20260906093023 | 73 | 122 | 0.9 | 2.6 | 0.00 | 0.00 | 0.00 | 79 | 1015.4 |
| 20260906091527 | 74 | 83 | 0.0 | 1.7 | 0.00 | 0.00 | 0.00 | 78 | 1015.3 |
| 20260906090013 | 74 | 122 | 1.7 | 2.6 | 0.00 | 0.00 | 0.00 | 78 | 1015.1 |
| 20260906084511 | 74 | 136 | 0.9 | 2.6 | 0.00 | 0.00 | 0.00 | 78 | 1015.2 |
| 20260906083016 | 74 | 105 | 0.9 | 1.7 | 0.00 | 0.00 | 0.00 | 78 | 1015.0 |
| 20260906081523 | 75 | 98 | 0.9 | 1.7 | 0.00 | 0.00 | 0.00 | 77 | 1015.1 |
| 20260906080004 | 75 | 109 | 0.0 | 2.6 | 0.00 | 0.00 | 0.00 | 76 | 1015.0 |
| 20260906074511 | 76 | 94 | 1.7 | 4.3 | 0.00 | 0.00 | 0.00 | 75 | 1015.1 |
| 20260906073019 | 76 | 169 | 0.9 | 3.5 | 0.00 | 0.00 | 0.00 | 75 | 1015.3 |
| 20260906071522 | 76 | 78 | 0.9 | 1.7 | 0.00 | 0.00 | 0.00 | 76 | 1015.4 |
| 20260906070028 | 76 | 122 | 0.0 | 1.7 | 0.00 | 0.00 | 0.00 | 77 | 1015.4 |
| 20260906064508 | 76 | 347 | 0.0 | 1.7 | 0.00 | 0.00 | 0.00 | 76 | 1015.4 |
| 20260906063015 | 76 | 82 | 0.0 | 2.6 | 0.00 | 0.00 | 0.00 | 75 | 1015.4 |
| 20260906061518 | 77 | 127 | 0.0 | 1.7 | 0.00 | 0.00 | 0.00 | 75 | 1015.4 |
| 20260906060032 | 77 | 70 | 0.0 | 1.7 | 0.00 | 0.00 | 0.00 | 74 | 1015.5 |
| 20260906054542 | 78 | 65 | 0.0 | 1.7 | 0.00 | 0.00 | 0.00 | 73 | 1015.3 |
| 20260906053010 | 78 | 34 | 0.0 | 1.7 | 0.00 | 0.00 | 0.00 | 72 | 1015.4 |
| 20260906051518 | 79 | 82 | 0.0 | 1.7 | 0.00 | 0.00 | 0.00 | 71 | 1015.4 |
| 20260906050028 | 79 | 88 | 0.0 | 1.7 | 0.00 | 0.00 | 0.00 | 70 | 1015.2 |
| 20260906044528 | 80 | 112 | 0.0 | 1.7 | 0.00 | 0.00 | 0.00 | 70 | 1015.3 |
| 20260906043032 | 81 | 32 | 0.0 | 1.7 | 0.00 | 0.00 | 0.00 | 68 | 1015.3 |
| 20260906041515 | 81 | 29 | 0.0 | 1.7 | 0.00 | 0.00 | 0.00 | 67 | 1015.3 |
| 20260906040044 | 82 | 140 | 0.0 | 1.7 | 0.00 | 0.00 | 0.00 | 66 | 1015.3 |
| 20260906034530 | 82 | 18 | 0.0 | 2.6 | 0.00 | 0.00 | 0.00 | 66 | 1015.3 |
| 20260906033041 | 82 | 87 | 0.9 | 1.7 | 0.00 | 0.00 | 0.00 | 65 | 1014.9 |
| 20260906031515 | 83 | 108 | 0.0 | 1.7 | 0.00 | 0.00 | 0.00 | 64 | 1014.8 |
| 20260906030021 | 84 | 102 | 0.9 | 1.7 | 0.00 | 0.00 | 0.00 | 63 | 1014.8 |
| 20260906024530 | 84 | 72 | 0.0 | 1.7 | 0.00 | 0.00 | 0.00 | 61 | 1014.7 |
| 20260906023008 | 84 | 120 | 0.0 | 0.0 | 0.00 | 0.00 | 0.00 | 61 | 1014.7 |
| 20260906021514 | 85 | 41 | 0.0 | 1.7 | 0.00 | 0.00 | 0.00 | 60 | 1014.4 |
| 20260906020019 | 86 | 82 | 0.0 | 1.7 | 0.00 | 0.00 | 0.00 | 58 | 1014.2 |
| 20260906014529 | 86 | 81 | 0.0 | 1.7 | 0.00 | 0.00 | 0.00 | 57 | 1014.2 |
| 20260906013033 | 88 | 87 | 0.0 | 1.7 | 0.00 | 0.00 | 0.00 | 55 | 1013.9 |
| 20260906011516 | 89 | 64 | 0.0 | 1.7 | 0.00 | 0.00 | 0.00 | 53 | 1013.8 |
| 20260906010019 | 91 | 27 | 0.0 | 1.7 | 0.00 | 0.00 | 0.00 | 50 | 1013.6 |
| 20260906004527 | 93 | 27 | 0.0 | 1.7 | 0.00 | 0.00 | 0.00 | 46 | 1013.5 |
| 20260906003028 | 95 | 20 | 0.0 | 1.7 | 0.00 | 0.00 | 0.00 | 44 | 1013.5 |
| 20260906001532 | 97 | 20 | 0.0 | 1.7 | 0.00 | 0.00 | 0.00 | 41 | 1013.5 |
| 20260906000014 | 99 | 31 | 0.0 | 2.6 | 0.00 | 0.00 | 0.00 | 38 | 1013.6 |
| 20260905234505 | 100 | 63 | 0.0 | 2.6 | 0.00 | 0.00 | 0.00 | 34 | 1013.6 |
| 20260905233026 | 100 | 32 | 1.7 | 2.6 | 0.00 | 0.00 | 0.00 | 33 | 1013.5 |
| 20260905231512 | 101 | 108 | 0.9 | 2.6 | 0.00 | 0.00 | 0.00 | 32 | 1013.5 |
| 20260905230012 | 101 | 3 | 0.0 | 2.6 | 0.00 | 0.00 | 0.00 | 32 | 1013.5 |
| 20260905224605 | 101 | 307 | 0.9 | 4.3 | 0.00 | 0.00 | 0.00 | 31 | 1013.4 |
| 20260905223004 | 101 | 89 | 1.7 | 2.6 | 0.00 | 0.00 | 0.00 | 32 | 1013.4 |
| 20260905221506 | 99 | 120 | 0.0 | 1.7 | 0.00 | 0.00 | 0.00 | 34 | 1013.5 |
| 20260905220010 | 99 | 156 | 0.0 | 3.5 | 0.00 | 0.00 | 0.00 | 35 | 1013.7 |
| 20260905214536 | 100 | 28 | 1.7 | 4.3 | 0.00 | 0.00 | 0.00 | 33 | 1013.8 |
| 20260905213004 | 102 | 17 | 1.7 | 5.2 | 0.00 | 0.00 | 0.00 | 33 | 1013.9 |
| 20260905211508 | 103 | 340 | 1.7 | 4.3 | 0.00 | 0.00 | 0.00 | 31 | 1014.0 |
| 20260905210018 | 101 | 193 | 1.7 | 5.2 | 0.00 | 0.00 | 0.00 | 32 | 1014.2 |
| 20260905204532 | 99 | 281 | 2.6 | 5.2 | 0.00 | 0.00 | 0.00 | 35 | 1014.5 |
| 20260905203020 | 99 | 281 | 1.7 | 6.1 | 0.00 | 0.00 | 0.00 | 36 | 1014.9 |
| 20260905201506 | 97 | 62 | 0.9 | 2.6 | 0.00 | 0.00 | 0.00 | 38 | 1015.1 |
| 20260905200020 | 98 | 63 | 1.7 | 3.5 | 0.00 | 0.00 | 0.00 | 38 | 1015.2 |
| 20260905194532 | 99 | 57 | 0.9 | 6.1 | 0.00 | 0.00 | 0.00 | 36 | 1015.3 |
| 20260905193020 | 101 | 25 | 2.6 | 6.1 | 0.00 | 0.00 | 0.00 | 35 | 1015.5 |
| 20260905191526 | 100 | 262 | 0.0 | 3.5 | 0.00 | 0.00 | 0.00 | 38 | 1015.8 |
| 20260905190005 | 99 | 360 | 2.6 | 8.7 | 0.00 | 0.00 | 0.00 | 37 | 1016.0 |
| 20260905184524 | 99 | 212 | 0.9 | 6.1 | 0.00 | 0.00 | 0.00 | 38 | 1016.3 |
| 20260905183017 | 98 | 167 | 2.6 | 9.6 | 0.00 | 0.00 | 0.00 | 39 | 1016.4 |